sensor_id;sensor_type;location;lat;lon;timestamp;pressure;altitude;pressure_sealevel;temperature;humidity
2841;BME280;53423;49.224;12.074;2023-02-12T00:01:07;99634.63;;;4.81;66.10
2841;BME280;53423;49.224;12.074;2023-02-12T00:03:36;99628.09;;;4.89;65.05
2841;BME280;53423;49.224;12.074;2023-02-12T00:06:05;99625.59;;;4.88;65.72
2841;BME280;53423;49.224;12.074;2023-02-12T00:08:33;99624.06;;;4.84;65.84
2841;BME280;53423;49.224;12.074;2023-02-12T00:11:06;99630.03;;;4.86;65.94
2841;BME280;53423;49.224;12.074;2023-02-12T00:13:34;99616.34;;;4.82;66.07
2841;BME280;53423;49.224;12.074;2023-02-12T00:16:08;99612.44;;;4.75;65.69
2841;BME280;53423;49.224;12.074;2023-02-12T00:18:37;99612.56;;;4.72;66.75
2841;BME280;53423;49.224;12.074;2023-02-12T00:21:05;99620.28;;;4.74;66.77
2841;BME280;53423;49.224;12.074;2023-02-12T00:23:34;99618.28;;;4.79;66.58
2841;BME280;53423;49.224;12.074;2023-02-12T00:26:04;99616.53;;;4.79;65.81
2841;BME280;53423;49.224;12.074;2023-02-12T00:28:32;99612.84;;;4.83;66.42
2841;BME280;53423;49.224;12.074;2023-02-12T00:31:04;99611.16;;;4.82;66.26
2841;BME280;53423;49.224;12.074;2023-02-12T00:33:34;99614.34;;;4.72;67.18
2841;BME280;53423;49.224;12.074;2023-02-12T00:36:03;99614.94;;;4.77;67.22
2841;BME280;53423;49.224;12.074;2023-02-12T00:38:31;99619.72;;;4.84;65.96
2841;BME280;53423;49.224;12.074;2023-02-12T00:40:59;99619.97;;;4.80;66.49
2841;BME280;53423;49.224;12.074;2023-02-12T00:43:27;99622.16;;;4.87;66.49
2841;BME280;53423;49.224;12.074;2023-02-12T00:45:55;99619.53;;;4.87;66.67
2841;BME280;53423;49.224;12.074;2023-02-12T00:48:23;99624.47;;;4.76;67.13
2841;BME280;53423;49.224;12.074;2023-02-12T00:50:53;99622.91;;;4.89;67.20
2841;BME280;53423;49.224;12.074;2023-02-12T00:53:21;99622.66;;;4.94;66.90
2841;BME280;53423;49.224;12.074;2023-02-12T00:55:48;99629.38;;;4.98;66.56
2841;BME280;53423;49.224;12.074;2023-02-12T00:58:16;99629.97;;;5.03;67.89
2841;BME280;53423;49.224;12.074;2023-02-12T01:00:45;99639.81;;;5.14;66.99
2841;BME280;53423;49.224;12.074;2023-02-12T01:03:13;99633.16;;;5.08;67.40
2841;BME280;53423;49.224;12.074;2023-02-12T01:05:41;99632.50;;;5.20;67.87
2841;BME280;53423;49.224;12.074;2023-02-12T01:08:12;99630.47;;;5.09;67.77
2841;BME280;53423;49.224;12.074;2023-02-12T01:10:42;99635.50;;;5.13;68.02
2841;BME280;53423;49.224;12.074;2023-02-12T01:13:11;99631.41;;;5.08;68.56
2841;BME280;53423;49.224;12.074;2023-02-12T01:15:41;99642.50;;;5.12;68.92
2841;BME280;53423;49.224;12.074;2023-02-12T01:18:09;99639.22;;;5.24;69.10
2841;BME280;53423;49.224;12.074;2023-02-12T01:20:38;99649.97;;;5.34;68.41
2841;BME280;53423;49.224;12.074;2023-02-12T01:23:06;99646.03;;;5.42;67.96
2841;BME280;53423;49.224;12.074;2023-02-12T01:25:36;99641.06;;;5.53;67.73
2841;BME280;53423;49.224;12.074;2023-02-12T01:28:04;99645.84;;;5.45;69.05
2841;BME280;53423;49.224;12.074;2023-02-12T01:30:32;99648.84;;;5.38;68.16
2841;BME280;53423;49.224;12.074;2023-02-12T01:33:00;99654.59;;;5.44;67.66
2841;BME280;53423;49.224;12.074;2023-02-12T01:35:28;99648.84;;;5.38;67.46
2841;BME280;53423;49.224;12.074;2023-02-12T01:37:56;99641.06;;;5.38;66.92
2841;BME280;53423;49.224;12.074;2023-02-12T01:40:24;99647.28;;;5.35;67.05
2841;BME280;53423;49.224;12.074;2023-02-12T01:42:53;99637.94;;;5.31;67.15
2841;BME280;53423;49.224;12.074;2023-02-12T01:48:21;99652.63;;;5.17;66.42
2841;BME280;53423;49.224;12.074;2023-02-12T01:53:28;99646.91;;;5.10;67.23
2841;BME280;53423;49.224;12.074;2023-02-12T01:55:58;99650.50;;;5.07;67.70
2841;BME280;53423;49.224;12.074;2023-02-12T01:58:30;99656.47;;;5.09;67.82
2841;BME280;53423;49.224;12.074;2023-02-12T02:01:02;99650.38;;;5.11;66.94
2841;BME280;53423;49.224;12.074;2023-02-12T02:03:32;99657.41;;;5.08;67.61
2841;BME280;53423;49.224;12.074;2023-02-12T02:06:05;99661.06;;;5.04;67.79
2841;BME280;53423;49.224;12.074;2023-02-12T02:08:35;99657.56;;;5.05;67.99
2841;BME280;53423;49.224;12.074;2023-02-12T02:11:04;99662.25;;;5.15;67.30
2841;BME280;53423;49.224;12.074;2023-02-12T02:13:54;99660.81;;;5.09;67.28
2841;BME280;53423;49.224;12.074;2023-02-12T02:16:44;99658.84;;;5.14;67.64
2841;BME280;53423;49.224;12.074;2023-02-12T02:19:26;99655.69;;;5.07;68.11
2841;BME280;53423;49.224;12.074;2023-02-12T02:22:12;99660.69;;;5.12;67.53
2841;BME280;53423;49.224;12.074;2023-02-12T02:24:59;99652.44;;;5.20;67.63
2841;BME280;53423;49.224;12.074;2023-02-12T02:27:41;99646.50;;;5.18;67.34
2841;BME280;53423;49.224;12.074;2023-02-12T02:30:31;99653.66;;;5.14;67.17
2841;BME280;53423;49.224;12.074;2023-02-12T02:33:11;99643.91;;;5.18;67.04
2841;BME280;53423;49.224;12.074;2023-02-12T02:35:48;99650.50;;;5.07;67.39
2841;BME280;53423;49.224;12.074;2023-02-12T02:38:22;99647.91;;;5.07;68.03
2841;BME280;53423;49.224;12.074;2023-02-12T02:40:56;99648.66;;;5.09;68.43
2841;BME280;53423;49.224;12.074;2023-02-12T02:43:32;99644.56;;;5.05;68.18
2841;BME280;53423;49.224;12.074;2023-02-12T02:46:06;99655.78;;;5.06;68.10
2841;BME280;53423;49.224;12.074;2023-02-12T02:48:38;99650.59;;;5.06;68.05
2841;BME280;53423;49.224;12.074;2023-02-12T02:51:13;99653.28;;;5.04;67.62
2841;BME280;53423;49.224;12.074;2023-02-12T02:53:45;99664.94;;;5.13;67.68
2841;BME280;53423;49.224;12.074;2023-02-12T02:56:16;99655.78;;;4.90;68.95
2841;BME280;53423;49.224;12.074;2023-02-12T02:58:50;99658.69;;;4.84;68.84
2841;BME280;53423;49.224;12.074;2023-02-12T03:01:24;99660.13;;;4.90;68.84
2841;BME280;53423;49.224;12.074;2023-02-12T03:03:58;99654.84;;;4.91;69.50
2841;BME280;53423;49.224;12.074;2023-02-12T03:06:33;99661.63;;;4.94;69.91
2841;BME280;53423;49.224;12.074;2023-02-12T03:09:10;99660.72;;;4.95;69.12
2841;BME280;53423;49.224;12.074;2023-02-12T03:11:39;99669.38;;;4.95;69.81
2841;BME280;53423;49.224;12.074;2023-02-12T03:14:12;99667.66;;;4.94;69.33
2841;BME280;53423;49.224;12.074;2023-02-12T03:16:48;99667.84;;;4.91;69.91
2841;BME280;53423;49.224;12.074;2023-02-12T03:19:20;99667.41;;;4.99;70.06
2841;BME280;53423;49.224;12.074;2023-02-12T03:21:54;99672.03;;;4.94;70.15
2841;BME280;53423;49.224;12.074;2023-02-12T03:24:28;99670.09;;;4.97;69.77
2841;BME280;53423;49.224;12.074;2023-02-12T03:27:02;99671.88;;;4.97;69.89
2841;BME280;53423;49.224;12.074;2023-02-12T03:29:31;99678.75;;;4.98;69.37
2841;BME280;53423;49.224;12.074;2023-02-12T03:32:20;99681.75;;;4.90;69.49
2841;BME280;53423;49.224;12.074;2023-02-12T03:34:52;99681.69;;;4.92;69.80
2841;BME280;53423;49.224;12.074;2023-02-12T03:37:26;99671.97;;;4.95;69.21
2841;BME280;53423;49.224;12.074;2023-02-12T03:39:59;99686.47;;;4.99;69.23
2841;BME280;53423;49.224;12.074;2023-02-12T03:42:34;99683.00;;;4.83;69.96
2841;BME280;53423;49.224;12.074;2023-02-12T03:45:09;99685.59;;;4.83;69.92
2841;BME280;53423;49.224;12.074;2023-02-12T03:47:47;99685.88;;;4.77;70.46
2841;BME280;53423;49.224;12.074;2023-02-12T03:50:17;99685.00;;;4.78;70.60
2841;BME280;53423;49.224;12.074;2023-02-12T03:52:48;99687.00;;;4.89;69.50
2841;BME280;53423;49.224;12.074;2023-02-12T03:55:17;99687.88;;;4.89;70.54
2841;BME280;53423;49.224;12.074;2023-02-12T03:57:49;99686.97;;;4.90;70.06
2841;BME280;53423;49.224;12.074;2023-02-12T04:00:21;99687.56;;;4.95;69.95
2841;BME280;53423;49.224;12.074;2023-02-12T04:02:51;99690.47;;;4.89;70.86
2841;BME280;53423;49.224;12.074;2023-02-12T04:05:22;99686.56;;;4.81;70.19
2841;BME280;53423;49.224;12.074;2023-02-12T04:07:51;99694.53;;;4.78;70.82
2841;BME280;53423;49.224;12.074;2023-02-12T04:10:21;99686.81;;;4.76;70.63
2841;BME280;53423;49.224;12.074;2023-02-12T04:12:56;99692.78;;;4.78;71.00
2841;BME280;53423;49.224;12.074;2023-02-12T04:15:39;99700.84;;;4.89;70.05
2841;BME280;53423;49.224;12.074;2023-02-12T04:18:15;99702.13;;;4.98;70.23
2841;BME280;53423;49.224;12.074;2023-02-12T04:20:52;99694.50;;;4.95;70.01
2841;BME280;53423;49.224;12.074;2023-02-12T04:23:37;99701.63;;;4.91;69.17
2841;BME280;53423;49.224;12.074;2023-02-12T04:26:11;99698.75;;;4.80;70.06
2841;BME280;53423;49.224;12.074;2023-02-12T04:28:46;99699.38;;;4.68;70.43
2841;BME280;53423;49.224;12.074;2023-02-12T04:31:22;99702.03;;;4.67;70.03
2841;BME280;53423;49.224;12.074;2023-02-12T04:34:02;99701.97;;;4.68;70.99
2841;BME280;53423;49.224;12.074;2023-02-12T04:36:34;99707.28;;;4.65;70.96
2841;BME280;53423;49.224;12.074;2023-02-12T04:39:06;99701.19;;;4.66;70.80
2841;BME280;53423;49.224;12.074;2023-02-12T04:41:37;99704.84;;;4.62;70.94
2841;BME280;53423;49.224;12.074;2023-02-12T04:44:16;99699.38;;;4.68;70.57
2841;BME280;53423;49.224;12.074;2023-02-12T04:46:44;99715.03;;;4.67;70.93
2841;BME280;53423;49.224;12.074;2023-02-12T04:49:15;99713.25;;;4.67;70.03
2841;BME280;53423;49.224;12.074;2023-02-12T04:51:44;99714.94;;;4.68;70.52
2841;BME280;53423;49.224;12.074;2023-02-12T04:54:12;99722.66;;;4.70;70.17
2841;BME280;53423;49.224;12.074;2023-02-12T04:56:40;99723.44;;;4.72;70.75
2841;BME280;53423;49.224;12.074;2023-02-12T04:59:08;99718.00;;;4.76;70.66
2841;BME280;53423;49.224;12.074;2023-02-12T05:01:37;99716.59;;;4.86;70.82
2841;BME280;53423;49.224;12.074;2023-02-12T05:04:06;99723.47;;;4.87;70.40
2841;BME280;53423;49.224;12.074;2023-02-12T05:06:36;99716.28;;;4.92;70.24
2841;BME280;53423;49.224;12.074;2023-02-12T05:09:06;99720.31;;;4.98;70.33
2841;BME280;53423;49.224;12.074;2023-02-12T05:11:34;99722.56;;;4.88;69.94
2841;BME280;53423;49.224;12.074;2023-02-12T05:14:02;99729.34;;;4.91;70.10
2841;BME280;53423;49.224;12.074;2023-02-12T05:16:30;99727.16;;;4.83;70.04
2841;BME280;53423;49.224;12.074;2023-02-12T05:18:58;99720.44;;;4.79;70.37
2841;BME280;53423;49.224;12.074;2023-02-12T05:21:25;99718.84;;;4.77;70.61
2841;BME280;53423;49.224;12.074;2023-02-12T05:23:55;99726.94;;;4.71;70.30
2841;BME280;53423;49.224;12.074;2023-02-12T05:26:23;99726.75;;;4.74;70.92
2841;BME280;53423;49.224;12.074;2023-02-12T05:28:51;99740.44;;;4.77;70.26
2841;BME280;53423;49.224;12.074;2023-02-12T05:31:19;99735.41;;;4.74;70.80
2841;BME280;53423;49.224;12.074;2023-02-12T05:33:48;99734.63;;;4.72;70.77
2841;BME280;53423;49.224;12.074;2023-02-12T05:36:19;99734.63;;;4.72;70.99
2841;BME280;53423;49.224;12.074;2023-02-12T05:38:48;99735.72;;;4.68;71.08
2841;BME280;53423;49.224;12.074;2023-02-12T05:41:19;99735.84;;;4.65;71.29
2841;BME280;53423;49.224;12.074;2023-02-12T05:43:48;99733.94;;;4.69;71.07
2841;BME280;53423;49.224;12.074;2023-02-12T05:46:17;99728.38;;;4.59;70.56
2841;BME280;53423;49.224;12.074;2023-02-12T05:48:46;99736.00;;;4.45;70.95
2841;BME280;53423;49.224;12.074;2023-02-12T05:51:16;99731.66;;;4.46;70.83
2841;BME280;53423;49.224;12.074;2023-02-12T05:53:45;99741.16;;;4.47;71.23
2841;BME280;53423;49.224;12.074;2023-02-12T05:56:15;99734.50;;;4.58;70.16
2841;BME280;53423;49.224;12.074;2023-02-12T05:58:47;99744.13;;;4.56;70.71
2841;BME280;53423;49.224;12.074;2023-02-12T06:01:17;99757.03;;;4.58;70.00
2841;BME280;53423;49.224;12.074;2023-02-12T06:03:46;99754.97;;;4.64;69.84
2841;BME280;53423;49.224;12.074;2023-02-12T06:06:14;99747.34;;;4.78;69.94
2841;BME280;53423;49.224;12.074;2023-02-12T06:08:43;99748.56;;;4.71;69.40
2841;BME280;53423;49.224;12.074;2023-02-12T06:11:13;99758.00;;;4.72;70.12
2841;BME280;53423;49.224;12.074;2023-02-12T06:13:41;99754.97;;;4.64;70.32
2841;BME280;53423;49.224;12.074;2023-02-12T06:16:17;99753.91;;;4.68;70.23
2841;BME280;53423;49.224;12.074;2023-02-12T06:18:46;99748.94;;;4.64;70.00
2841;BME280;53423;49.224;12.074;2023-02-12T06:21:14;99762.75;;;4.64;71.09
2841;BME280;53423;49.224;12.074;2023-02-12T06:23:42;99765.34;;;4.64;70.76
2841;BME280;53423;49.224;12.074;2023-02-12T06:26:10;99764.22;;;4.70;69.94
2841;BME280;53423;49.224;12.074;2023-02-12T06:28:38;99768.28;;;4.75;70.81
2841;BME280;53423;49.224;12.074;2023-02-12T06:31:18;99768.19;;;4.77;69.97
2841;BME280;53423;49.224;12.074;2023-02-12T06:33:47;99770.19;;;4.72;70.43
2841;BME280;53423;49.224;12.074;2023-02-12T06:36:16;99779.66;;;4.73;70.06
2841;BME280;53423;49.224;12.074;2023-02-12T06:38:44;99782.41;;;4.70;70.69
2841;BME280;53423;49.224;12.074;2023-02-12T06:41:12;99788.41;;;4.70;70.45
2841;BME280;53423;49.224;12.074;2023-02-12T06:43:40;99785.88;;;4.35;71.48
2841;BME280;53423;49.224;12.074;2023-02-12T06:46:08;99793.63;;;4.53;70.69
2841;BME280;53423;49.224;12.074;2023-02-12T06:48:38;99794.00;;;4.63;71.39
2841;BME280;53423;49.224;12.074;2023-02-12T06:51:07;99797.81;;;4.73;70.61
2841;BME280;53423;49.224;12.074;2023-02-12T06:53:36;99796.78;;;4.77;70.16
2841;BME280;53423;49.224;12.074;2023-02-12T06:56:06;99801.34;;;4.89;69.63
2841;BME280;53423;49.224;12.074;2023-02-12T06:58:37;99800.44;;;4.90;70.45
2841;BME280;53423;49.224;12.074;2023-02-12T07:01:08;99803.09;;;4.88;69.67
2841;BME280;53423;49.224;12.074;2023-02-12T07:03:41;99804.00;;;4.87;70.47
2841;BME280;53423;49.224;12.074;2023-02-12T07:06:09;99807.13;;;4.94;70.42
2841;BME280;53423;49.224;12.074;2023-02-12T07:08:37;99799.94;;;4.99;69.47
2841;BME280;53423;49.224;12.074;2023-02-12T07:11:05;99788.94;;;4.94;70.37
2841;BME280;53423;49.224;12.074;2023-02-12T07:13:34;99794.00;;;4.97;69.38
2841;BME280;53423;49.224;12.074;2023-02-12T07:16:04;99797.06;;;5.05;69.65
2841;BME280;53423;49.224;12.074;2023-02-12T07:18:36;99804.75;;;5.24;68.39
2841;BME280;53423;49.224;12.074;2023-02-12T07:21:06;99806.91;;;5.16;68.36
2841;BME280;53423;49.224;12.074;2023-02-12T07:23:35;99805.91;;;5.18;68.47
2841;BME280;53423;49.224;12.074;2023-02-12T07:26:05;99810.03;;;5.22;68.67
2841;BME280;53423;49.224;12.074;2023-02-12T07:28:33;99804.06;;;5.20;68.70
2841;BME280;53423;49.224;12.074;2023-02-12T07:31:06;99805.22;;;5.15;69.45
2841;BME280;53423;49.224;12.074;2023-02-12T07:33:34;99808.25;;;5.23;69.17
2841;BME280;53423;49.224;12.074;2023-02-12T07:36:06;99803.66;;;5.28;69.74
2841;BME280;53423;49.224;12.074;2023-02-12T07:38:35;99810.06;;;5.38;69.44
2841;BME280;53423;49.224;12.074;2023-02-12T07:41:07;99809.94;;;5.41;68.79
2841;BME280;53423;49.224;12.074;2023-02-12T07:43:36;99809.00;;;5.42;69.37
2841;BME280;53423;49.224;12.074;2023-02-12T07:46:06;99806.16;;;5.46;68.98
2841;BME280;53423;49.224;12.074;2023-02-12T07:48:35;99805.09;;;5.50;69.00
2841;BME280;53423;49.224;12.074;2023-02-12T07:51:06;99814.31;;;5.56;68.39
2841;BME280;53423;49.224;12.074;2023-02-12T07:56:14;99813.75;;;5.66;68.05
2841;BME280;53423;49.224;12.074;2023-02-12T07:58:43;99809.66;;;5.78;67.43
2841;BME280;53423;49.224;12.074;2023-02-12T08:01:14;99811.50;;;5.76;68.27
2841;BME280;53423;49.224;12.074;2023-02-12T08:03:43;99812.66;;;5.70;67.93
2841;BME280;53423;49.224;12.074;2023-02-12T08:06:14;99816.44;;;5.65;68.53
2841;BME280;53423;49.224;12.074;2023-02-12T08:08:42;99818.13;;;5.66;68.84
2841;BME280;53423;49.224;12.074;2023-02-12T08:11:12;99819.06;;;5.80;68.29
2841;BME280;53423;49.224;12.074;2023-02-12T08:13:40;99815.06;;;5.90;68.06
2841;BME280;53423;49.224;12.074;2023-02-12T08:16:09;99819.72;;;6.01;67.36
2841;BME280;53423;49.224;12.074;2023-02-12T08:18:38;99823.91;;;6.19;67.15
2841;BME280;53423;49.224;12.074;2023-02-12T08:21:07;99818.19;;;6.28;67.36
2841;BME280;53423;49.224;12.074;2023-02-12T08:23:37;99820.44;;;6.50;66.30
2841;BME280;53423;49.224;12.074;2023-02-12T08:26:07;99815.03;;;6.68;65.81
2841;BME280;53423;49.224;12.074;2023-02-12T08:28:37;99818.41;;;6.84;65.68
2841;BME280;53423;49.224;12.074;2023-02-12T08:31:07;99824.78;;;6.94;64.52
2841;BME280;53423;49.224;12.074;2023-02-12T08:33:35;99819.94;;;6.88;63.92
2841;BME280;53423;49.224;12.074;2023-02-12T08:36:05;99807.66;;;7.04;64.31
2841;BME280;53423;49.224;12.074;2023-02-12T08:38:33;99812.16;;;7.16;63.67
2841;BME280;53423;49.224;12.074;2023-02-12T08:41:04;99813.44;;;7.09;64.16
2841;BME280;53423;49.224;12.074;2023-02-12T08:43:33;99812.63;;;7.09;63.71
2841;BME280;53423;49.224;12.074;2023-02-12T08:46:02;99815.97;;;7.11;64.32
2841;BME280;53423;49.224;12.074;2023-02-12T08:48:31;99815.81;;;7.14;63.50
2841;BME280;53423;49.224;12.074;2023-02-12T08:51:04;99820.28;;;7.26;63.96
2841;BME280;53423;49.224;12.074;2023-02-12T08:53:32;99817.84;;;7.09;64.10
2841;BME280;53423;49.224;12.074;2023-02-12T08:56:00;99817.00;;;7.08;64.85
2841;BME280;53423;49.224;12.074;2023-02-12T08:58:30;99816.75;;;7.27;63.65
2841;BME280;53423;49.224;12.074;2023-02-12T09:00:58;99816.84;;;7.25;63.68
2841;BME280;53423;49.224;12.074;2023-02-12T09:03:26;99822.88;;;7.26;63.96
2841;BME280;53423;49.224;12.074;2023-02-12T09:05:54;99823.56;;;7.43;63.70
2841;BME280;53423;49.224;12.074;2023-02-12T09:08:22;99821.44;;;7.50;63.91
2841;BME280;53423;49.224;12.074;2023-02-12T09:10:50;99829.72;;;7.56;63.36
2841;BME280;53423;49.224;12.074;2023-02-12T09:13:18;99829.91;;;7.53;63.91
2841;BME280;53423;49.224;12.074;2023-02-12T09:15:47;99828.81;;;7.57;63.88
2841;BME280;53423;49.224;12.074;2023-02-12T09:18:15;99825.63;;;7.52;63.43
2841;BME280;53423;49.224;12.074;2023-02-12T09:20:44;99833.16;;;7.43;64.66
2841;BME280;53423;49.224;12.074;2023-02-12T09:23:13;99829.06;;;7.53;63.43
2841;BME280;53423;49.224;12.074;2023-02-12T09:25:42;99835.59;;;7.60;64.05
2841;BME280;53423;49.224;12.074;2023-02-12T09:28:11;99838.13;;;7.47;64.25
2841;BME280;53423;49.224;12.074;2023-02-12T09:30:40;99834.09;;;7.56;64.21
2841;BME280;53423;49.224;12.074;2023-02-12T09:33:10;99835.72;;;7.73;64.29
2841;BME280;53423;49.224;12.074;2023-02-12T09:35:38;99832.88;;;7.90;63.52
2841;BME280;53423;49.224;12.074;2023-02-12T09:38:07;99838.94;;;8.04;62.63
2841;BME280;53423;49.224;12.074;2023-02-12T09:40:42;99835.28;;;8.07;62.42
2841;BME280;53423;49.224;12.074;2023-02-12T09:43:17;99827.91;;;8.27;61.97
2841;BME280;53423;49.224;12.074;2023-02-12T09:45:50;99831.41;;;8.40;61.57
2841;BME280;53423;49.224;12.074;2023-02-12T09:48:34;99825.06;;;8.44;61.80
2841;BME280;53423;49.224;12.074;2023-02-12T09:51:07;99827.06;;;8.53;61.29
2841;BME280;53423;49.224;12.074;2023-02-12T09:53:39;99837.19;;;8.45;61.90
2841;BME280;53423;49.224;12.074;2023-02-12T09:56:12;99840.88;;;8.55;60.96
2841;BME280;53423;49.224;12.074;2023-02-12T09:58:43;99840.34;;;8.50;61.88
2841;BME280;53423;49.224;12.074;2023-02-12T10:01:14;99835.53;;;8.44;61.93
2841;BME280;53423;49.224;12.074;2023-02-12T10:03:47;99838.34;;;8.13;63.52
2841;BME280;53423;49.224;12.074;2023-02-12T10:06:16;99835.88;;;7.98;64.10
2841;BME280;53423;49.224;12.074;2023-02-12T10:08:58;99826.03;;;8.29;63.77
2841;BME280;53423;49.224;12.074;2023-02-12T10:11:47;99835.53;;;8.44;62.72
2841;BME280;53423;49.224;12.074;2023-02-12T10:14:33;99838.47;;;8.26;62.59
2841;BME280;53423;49.224;12.074;2023-02-12T10:17:14;99829.78;;;8.52;62.88
2841;BME280;53423;49.224;12.074;2023-02-12T10:19:59;99828.22;;;8.76;61.59
2841;BME280;53423;49.224;12.074;2023-02-12T10:22:37;99827.91;;;8.54;62.03
2841;BME280;53423;49.224;12.074;2023-02-12T10:25:25;99827.81;;;8.55;62.87
2841;BME280;53423;49.224;12.074;2023-02-12T10:27:59;99834.34;;;8.62;62.48
2841;BME280;53423;49.224;12.074;2023-02-12T10:30:36;99831.47;;;8.79;62.24
2841;BME280;53423;49.224;12.074;2023-02-12T10:33:08;99834.09;;;8.79;61.82
2841;BME280;53423;49.224;12.074;2023-02-12T10:35:45;99841.13;;;9.04;61.55
2841;BME280;53423;49.224;12.074;2023-02-12T10:38:17;99842.09;;;9.03;61.27
2841;BME280;53423;49.224;12.074;2023-02-12T10:40:46;99837.59;;;8.66;61.75
2841;BME280;53423;49.224;12.074;2023-02-12T10:43:16;99835.53;;;8.71;62.11
2841;BME280;53423;49.224;12.074;2023-02-12T10:45:44;99826.25;;;8.92;61.84
2841;BME280;53423;49.224;12.074;2023-02-12T10:48:15;99833.53;;;9.26;60.29
2841;BME280;53423;49.224;12.074;2023-02-12T10:50:54;99829.78;;;9.68;59.07
2841;BME280;53423;49.224;12.074;2023-02-12T10:53:31;99834.16;;;9.80;59.11
2841;BME280;53423;49.224;12.074;2023-02-12T10:56:12;99834.31;;;9.66;59.13
2841;BME280;53423;49.224;12.074;2023-02-12T10:58:51;99828.19;;;9.78;59.09
2841;BME280;53423;49.224;12.074;2023-02-12T11:01:23;99824.59;;;10.04;57.47
2841;BME280;53423;49.224;12.074;2023-02-12T11:03:53;99822.31;;;9.74;59.45
2841;BME280;53423;49.224;12.074;2023-02-12T11:06:24;99824.34;;;9.46;60.20
2841;BME280;53423;49.224;12.074;2023-02-12T11:08:53;99825.25;;;9.95;58.84
2841;BME280;53423;49.224;12.074;2023-02-12T11:11:24;99821.91;;;9.68;59.57
2841;BME280;53423;49.224;12.074;2023-02-12T11:13:56;99825.78;;;9.87;58.99
2841;BME280;53423;49.224;12.074;2023-02-12T11:16:27;99826.00;;;10.10;57.69
2841;BME280;53423;49.224;12.074;2023-02-12T11:19:00;99824.69;;;10.51;57.62
2841;BME280;53423;49.224;12.074;2023-02-12T11:21:31;99819.94;;;10.56;55.71
2841;BME280;53423;49.224;12.074;2023-02-12T11:24:25;99812.13;;;10.44;56.88
2841;BME280;53423;49.224;12.074;2023-02-12T11:27:11;99804.69;;;10.85;55.82
2841;BME280;53423;49.224;12.074;2023-02-12T11:29:39;99807.16;;;11.10;55.04
2841;BME280;53423;49.224;12.074;2023-02-12T11:32:18;99800.34;;;11.07;54.92
2841;BME280;53423;49.224;12.074;2023-02-12T11:35:03;99798.00;;;11.38;53.62
2841;BME280;53423;49.224;12.074;2023-02-12T11:37:33;99797.69;;;11.42;54.06
2841;BME280;53423;49.224;12.074;2023-02-12T11:40:05;99800.84;;;10.78;56.04
2841;BME280;53423;49.224;12.074;2023-02-12T11:42:36;99805.16;;;11.24;54.17
2841;BME280;53423;49.224;12.074;2023-02-12T11:45:15;99801.56;;;11.14;54.44
2841;BME280;53423;49.224;12.074;2023-02-12T11:47:45;99797.19;;;11.37;53.75
2841;BME280;53423;49.224;12.074;2023-02-12T11:50:24;99796.63;;;11.78;53.06
2841;BME280;53423;49.224;12.074;2023-02-12T11:52:57;99801.44;;;11.84;52.04
2841;BME280;53423;49.224;12.074;2023-02-12T11:55:28;99798.66;;;11.96;51.46
2841;BME280;53423;49.224;12.074;2023-02-12T11:58:02;99796.28;;;11.93;51.57
2841;BME280;53423;49.224;12.074;2023-02-12T12:00:33;99802.00;;;12.09;52.20
2841;BME280;53423;49.224;12.074;2023-02-12T12:03:10;99797.97;;;11.94;51.61
2841;BME280;53423;49.224;12.074;2023-02-12T12:05:44;99794.44;;;12.27;51.02
2841;BME280;53423;49.224;12.074;2023-02-12T12:08:19;99800.22;;;11.99;50.90
2841;BME280;53423;49.224;12.074;2023-02-12T12:10:55;99793.41;;;12.50;49.42
2841;BME280;53423;49.224;12.074;2023-02-12T12:13:30;99792.78;;;12.26;50.92
2841;BME280;53423;49.224;12.074;2023-02-12T12:16:06;99784.09;;;11.92;51.22
2841;BME280;53423;49.224;12.074;2023-02-12T12:18:57;99796.28;;;11.82;51.34
2841;BME280;53423;49.224;12.074;2023-02-12T12:21:47;99788.53;;;11.70;52.02
2841;BME280;53423;49.224;12.074;2023-02-12T12:24:22;99786.47;;;11.95;51.06
2841;BME280;53423;49.224;12.074;2023-02-12T12:26:56;99791.25;;;12.01;51.09
2841;BME280;53423;49.224;12.074;2023-02-12T12:29:39;99783.38;;;11.68;51.88
2841;BME280;53423;49.224;12.074;2023-02-12T12:32:11;99793.00;;;11.23;52.72
2841;BME280;53423;49.224;12.074;2023-02-12T12:34:41;99787.88;;;11.33;52.77
2841;BME280;53423;49.224;12.074;2023-02-12T12:37:18;99794.28;;;11.29;51.70
2841;BME280;53423;49.224;12.074;2023-02-12T12:40:18;99789.75;;;11.20;53.34
2841;BME280;53423;49.224;12.074;2023-02-12T12:43:03;99788.13;;;11.30;52.53
2841;BME280;53423;49.224;12.074;2023-02-12T12:46:08;99786.66;;;11.26;52.76
2841;BME280;53423;49.224;12.074;2023-02-12T12:48:59;99784.19;;;11.36;53.10
2841;BME280;53423;49.224;12.074;2023-02-12T12:51:45;99787.97;;;10.75;54.14
2841;BME280;53423;49.224;12.074;2023-02-12T12:54:27;99787.97;;;10.51;55.28
2841;BME280;53423;49.224;12.074;2023-02-12T12:57:06;99793.09;;;10.76;54.80
2841;BME280;53423;49.224;12.074;2023-02-12T12:59:48;99781.00;;;10.97;54.46
2841;BME280;53423;49.224;12.074;2023-02-12T13:05:42;99787.16;;;10.85;54.12
2841;BME280;53423;49.224;12.074;2023-02-12T13:08:26;99783.72;;;10.85;53.10
2841;BME280;53423;49.224;12.074;2023-02-12T13:11:02;99791.59;;;10.14;55.34
2841;BME280;53423;49.224;12.074;2023-02-12T13:13:37;99789.09;;;10.36;55.35
2841;BME280;53423;49.224;12.074;2023-02-12T13:16:10;99787.13;;;10.74;53.74
2841;BME280;53423;49.224;12.074;2023-02-12T13:18:50;99783.53;;;11.10;53.21
2841;BME280;53423;49.224;12.074;2023-02-12T13:21:31;99785.88;;;10.91;53.23
2841;BME280;53423;49.224;12.074;2023-02-12T13:24:04;99786.25;;;10.97;54.08
2841;BME280;53423;49.224;12.074;2023-02-12T13:26:44;99780.06;;;11.09;53.51
2841;BME280;53423;49.224;12.074;2023-02-12T13:29:18;99784.56;;;10.96;53.37
2841;BME280;53423;49.224;12.074;2023-02-12T13:31:48;99788.38;;;10.58;55.42
2841;BME280;53423;49.224;12.074;2023-02-12T13:34:19;99785.16;;;10.42;56.37
2841;BME280;53423;49.224;12.074;2023-02-12T13:36:48;99788.19;;;10.72;54.56
2841;BME280;53423;49.224;12.074;2023-02-12T13:39:24;99782.53;;;10.65;54.49
2841;BME280;53423;49.224;12.074;2023-02-12T13:42:00;99791.25;;;10.66;54.62
2841;BME280;53423;49.224;12.074;2023-02-12T13:44:36;99779.78;;;10.56;54.98
2841;BME280;53423;49.224;12.074;2023-02-12T13:47:14;99781.50;;;10.44;55.75
2841;BME280;53423;49.224;12.074;2023-02-12T13:49:47;99781.13;;;10.38;55.77